Terminal Aerodrome Forecast
Issued by NWS

Home | Current Version | Previous Version | Graphics & Text | Print | Product List | Glossary On
Versions: 1 2 3 4 5 6 7 8 9 10 11 12 13 14 15 16 17 18 19 20 21
027
FTUS43 KABR 262324
TAFATY
TAF
KATY 262324Z 2700/2724 34015KT P6SM OVC015
     FM270200 34012KT P6SM OVC007
     FM271600 34013KT P6SM OVC015
     FM271900 33011KT P6SM OVC025
     FM272200 33011KT P6SM SCT250=

USA.gov is the U.S. government's official web portal to all federal, state and local government web resources and services.